createdAt,value
2018-03-16T00:01:59.201Z,39.50
2018-03-16T00:04:27.534Z,33.17
2018-03-16T00:06:55.850Z,29.00
2018-03-16T00:09:24.185Z,37.27
2018-03-16T00:11:52.507Z,35.23
2018-03-16T00:14:20.895Z,30.97
2018-03-16T00:16:49.262Z,31.73
2018-03-16T00:19:17.618Z,39.67
2018-03-16T00:21:46.028Z,41.20
2018-03-16T00:24:14.407Z,29.97
2018-03-16T00:26:42.721Z,33.23
2018-03-16T00:29:11.033Z,26.90
2018-03-16T00:31:39.364Z,29.10
2018-03-16T00:34:07.690Z,30.37
2018-03-16T00:36:36.013Z,29.00
2018-03-16T00:39:03.668Z,24.97
2018-03-16T00:41:31.880Z,25.70
2018-03-16T00:44:00.251Z,25.80
2018-03-16T00:46:28.599Z,26.63
2018-03-16T00:48:56.939Z,24.63
2018-03-16T00:51:25.264Z,24.20
2018-03-16T00:53:53.597Z,26.70
2018-03-16T00:56:21.940Z,26.83
2018-03-16T00:58:50.283Z,29.43
2018-03-16T01:01:18.603Z,27.40
2018-03-16T01:03:46.926Z,36.03
2018-03-16T01:06:15.250Z,38.83
2018-03-16T01:08:43.573Z,34.43
2018-03-16T01:11:11.921Z,28.47
2018-03-16T01:13:40.268Z,35.87
2018-03-16T01:16:08.605Z,30.37
2018-03-16T01:18:36.934Z,34.10
2018-03-16T01:21:05.837Z,31.40
2018-03-16T01:23:34.174Z,38.23
2018-03-16T01:26:02.551Z,41.07
2018-03-16T01:28:30.884Z,42.13
2018-03-16T01:30:59.206Z,39.93
2018-03-16T01:33:27.573Z,40.27
2018-03-16T01:35:55.674Z,40.20
2018-03-16T01:38:23.999Z,36.77
2018-03-16T01:40:52.320Z,34.00
2018-03-16T01:43:20.642Z,34.53
2018-03-16T01:45:49.005Z,35.43
2018-03-16T01:48:17.344Z,34.23
2018-03-16T01:50:45.702Z,34.20
2018-03-16T01:53:17.297Z,35.63
2018-03-16T01:55:45.634Z,35.60
2018-03-16T01:58:13.968Z,32.23
2018-03-16T02:00:42.288Z,31.07
2018-03-16T02:03:10.629Z,29.20
2018-03-16T02:05:38.949Z,33.93
2018-03-16T02:08:07.308Z,31.73
2018-03-16T02:10:35.630Z,33.13
2018-03-16T02:13:03.948Z,32.77
2018-03-16T02:15:32.109Z,32.40
2018-03-16T02:18:00.445Z,31.27
2018-03-16T02:20:28.783Z,32.13
2018-03-16T02:22:57.141Z,32.47
2018-03-16T02:25:25.514Z,32.37
2018-03-16T02:27:53.827Z,31.83
2018-03-16T02:30:22.219Z,31.87
2018-03-16T02:32:50.556Z,31.47
2018-03-16T02:35:18.935Z,32.53
2018-03-16T02:37:47.262Z,32.87
2018-03-16T02:40:15.658Z,32.47
2018-03-16T02:42:43.990Z,31.50
2018-03-16T02:45:12.346Z,30.30
2018-03-16T02:47:40.699Z,31.60
2018-03-16T02:50:09.038Z,33.77
2018-03-16T02:52:37.380Z,33.47
2018-03-16T02:55:05.698Z,34.33
2018-03-16T02:57:34.067Z,34.27
2018-03-16T03:00:02.414Z,31.60
2018-03-16T03:02:30.793Z,32.43
2018-03-16T03:04:59.153Z,32.53
2018-03-16T03:07:27.539Z,32.77
2018-03-16T03:09:55.871Z,30.40
2018-03-16T03:12:24.203Z,31.93
2018-03-16T03:14:52.552Z,34.53
2018-03-16T03:17:20.888Z,33.50
2018-03-16T03:19:49.217Z,30.97
2018-03-16T03:22:18.770Z,34.27
2018-03-16T03:24:47.187Z,29.80
2018-03-16T03:27:15.720Z,31.37
2018-03-16T03:29:44.109Z,31.40
2018-03-16T03:32:12.424Z,31.70
2018-03-16T03:34:40.786Z,32.43
2018-03-16T03:37:09.212Z,30.77
2018-03-16T03:39:37.537Z,32.13
2018-03-16T03:42:05.894Z,31.67
2018-03-16T03:44:34.277Z,31.43
2018-03-16T03:47:02.699Z,31.57
2018-03-16T03:49:31.127Z,31.23
2018-03-16T03:51:59.507Z,30.53
2018-03-16T03:54:27.818Z,32.03
2018-03-16T03:56:56.150Z,30.63
2018-03-16T03:59:24.474Z,31.70
2018-03-16T04:01:52.803Z,32.90
2018-03-16T04:04:21.142Z,31.60
2018-03-16T04:06:49.474Z,31.77
2018-03-16T04:09:17.819Z,31.63
2018-03-16T04:11:46.134Z,31.03
2018-03-16T04:14:14.647Z,30.83
2018-03-16T04:16:43.045Z,30.80
2018-03-16T04:19:11.391Z,31.20
2018-03-16T04:21:39.730Z,31.27
2018-03-16T04:24:08.285Z,28.73
2018-03-16T04:26:36.634Z,29.23
2018-03-16T04:29:04.954Z,29.37
2018-03-16T04:31:33.284Z,29.50
2018-03-16T04:34:01.599Z,28.53
2018-03-16T04:36:29.984Z,29.63
2018-03-16T04:38:58.334Z,29.17
2018-03-16T04:41:26.719Z,30.07
2018-03-16T04:43:55.081Z,30.83
2018-03-16T04:46:23.443Z,29.33
2018-03-16T04:48:51.781Z,30.87
2018-03-16T04:51:20.205Z,29.77
2018-03-16T04:53:48.551Z,30.03
2018-03-16T04:56:16.922Z,30.73
2018-03-16T04:58:54.966Z,30.57
2018-03-16T05:01:23.284Z,30.40
2018-03-16T05:03:51.648Z,31.87
2018-03-16T05:06:20.034Z,32.67
2018-03-16T05:08:48.396Z,30.73
2018-03-16T05:11:16.746Z,30.27
2018-03-16T05:13:45.098Z,28.77
2018-03-16T05:16:13.418Z,29.83
2018-03-16T05:18:41.787Z,29.70
2018-03-16T05:21:10.130Z,28.37
2018-03-16T05:23:38.451Z,28.90
2018-03-16T05:26:06.821Z,28.93
2018-03-16T05:28:35.221Z,29.13
2018-03-16T05:31:03.560Z,28.67
2018-03-16T05:33:31.888Z,27.37
2018-03-16T05:36:00.249Z,27.17
2018-03-16T05:38:28.624Z,27.57
2018-03-16T05:41:09.654Z,28.20
2018-03-16T05:43:38.051Z,28.17
2018-03-16T05:46:06.397Z,26.87
2018-03-16T05:48:34.758Z,28.77
2018-03-16T05:51:03.166Z,27.80
2018-03-16T05:53:31.487Z,28.30
2018-03-16T05:55:59.899Z,27.33
2018-03-16T05:58:28.272Z,29.10
2018-03-16T06:00:56.745Z,29.17
2018-03-16T06:03:43.839Z,29.63
2018-03-16T06:06:12.903Z,27.20
2018-03-16T06:08:41.248Z,27.63
2018-03-16T06:11:09.658Z,27.73
2018-03-16T06:14:00.148Z,25.63
2018-03-16T06:16:28.475Z,26.57
2018-03-16T06:18:56.863Z,25.87
2018-03-16T06:21:25.298Z,26.97
2018-03-16T06:23:53.727Z,24.63
2018-03-16T06:26:22.124Z,24.60
2018-03-16T06:28:50.471Z,25.13
2018-03-16T06:31:18.846Z,26.07
2018-03-16T06:33:47.202Z,25.50
2018-03-16T06:36:15.526Z,25.37
2018-03-16T06:38:43.881Z,23.80
2018-03-16T06:41:13.025Z,24.00
2018-03-16T06:43:41.376Z,22.97
2018-03-16T06:46:09.782Z,20.23
2018-03-16T06:48:38.100Z,20.63
2018-03-16T06:51:06.421Z,21.50
2018-03-16T06:53:34.821Z,23.63
2018-03-16T06:56:03.207Z,17.23
2018-03-16T06:58:31.571Z,21.83
2018-03-16T07:00:59.987Z,20.67
2018-03-16T07:03:28.498Z,18.37
2018-03-16T07:05:56.837Z,16.63
2018-03-16T07:08:25.243Z,15.90
2018-03-16T07:10:53.642Z,15.63
2018-03-16T07:13:21.975Z,16.00
2018-03-16T07:15:50.294Z,16.53
2018-03-16T07:18:18.615Z,16.33
2018-03-16T07:20:46.972Z,17.63
2018-03-16T07:23:15.380Z,18.93
2018-03-16T07:25:43.727Z,22.57
2018-03-16T07:28:12.063Z,25.73
2018-03-16T07:30:40.439Z,25.03
2018-03-16T07:33:08.865Z,29.37
2018-03-16T07:35:37.301Z,29.53
2018-03-16T07:38:05.625Z,33.90
2018-03-16T07:40:34.008Z,33.10
2018-03-16T07:43:02.474Z,35.70
2018-03-16T07:45:36.425Z,33.10
2018-03-16T07:48:05.598Z,29.07
2018-03-16T07:50:33.959Z,28.23
2018-03-16T07:53:02.309Z,26.97
2018-03-16T07:55:30.674Z,25.33
2018-03-16T07:57:59.013Z,25.30
2018-03-16T08:00:27.425Z,25.53
2018-03-16T08:02:55.775Z,23.40
2018-03-16T08:05:24.187Z,23.17
2018-03-16T08:07:52.586Z,23.50
2018-03-16T08:10:20.934Z,21.43
2018-03-16T08:12:49.268Z,18.07
2018-03-16T08:15:17.607Z,18.97
2018-03-16T08:17:46.201Z,20.27
2018-03-16T08:20:14.591Z,20.03
2018-03-16T08:22:43.040Z,19.80
2018-03-16T08:25:11.371Z,21.13
2018-03-16T08:27:39.730Z,22.87
2018-03-16T08:30:08.098Z,23.27
2018-03-16T08:32:36.468Z,23.77
2018-03-16T08:35:04.835Z,24.13
2018-03-16T08:37:33.169Z,22.90
2018-03-16T08:40:01.514Z,22.27
2018-03-16T08:42:29.885Z,21.43
2018-03-16T08:44:58.259Z,23.17
2018-03-16T08:47:26.777Z,28.10
2018-03-16T08:49:55.116Z,22.90
2018-03-16T08:52:23.471Z,22.10
2018-03-16T08:54:51.834Z,21.70
2018-03-16T08:57:20.166Z,23.80
2018-03-16T08:59:48.525Z,23.93
2018-03-16T09:02:16.930Z,24.87
2018-03-16T09:04:45.293Z,22.90
2018-03-16T09:07:13.645Z,24.50
2018-03-16T09:09:41.995Z,26.03
2018-03-16T09:12:10.325Z,26.33
2018-03-16T09:14:39.520Z,26.70
2018-03-16T09:17:07.878Z,30.83
2018-03-16T09:19:36.274Z,28.33
2018-03-16T09:22:04.723Z,30.27
2018-03-16T09:24:33.176Z,26.77
2018-03-16T09:27:01.540Z,28.63
2018-03-16T09:29:29.897Z,27.23
2018-03-16T09:31:58.245Z,25.07
2018-03-16T09:34:26.682Z,24.23
2018-03-16T09:36:55.031Z,25.87
2018-03-16T09:39:23.413Z,21.53
2018-03-16T09:41:51.791Z,21.87
2018-03-16T09:44:20.167Z,23.60
2018-03-16T09:46:48.546Z,23.00
2018-03-16T09:49:16.928Z,22.83
2018-03-16T09:51:45.254Z,23.33
2018-03-16T17:03:38.196Z,13.77
2018-03-16T17:09:21.213Z,14.97
2018-03-16T17:14:42.779Z,13.43
2018-03-16T17:17:11.149Z,14.13
2018-03-16T17:19:39.492Z,13.63
2018-03-16T17:22:07.922Z,12.67
2018-03-16T17:24:36.313Z,12.63
2018-03-16T17:27:04.674Z,12.77
2018-03-16T17:29:33.037Z,13.30
2018-03-16T17:32:01.375Z,9.43
2018-03-16T17:34:29.715Z,8.43
2018-03-16T17:36:57.919Z,11.97
2018-03-16T17:39:26.283Z,12.80
2018-03-16T17:41:55.085Z,12.00
2018-03-16T17:44:23.424Z,13.03
2018-03-16T17:46:51.778Z,13.10
2018-03-16T17:49:20.134Z,13.53
2018-03-16T17:51:48.501Z,13.10
2018-03-16T17:54:16.842Z,14.23
2018-03-16T17:56:45.170Z,14.23
2018-03-16T17:59:13.505Z,14.17
2018-03-16T18:01:41.863Z,15.90
2018-03-16T18:04:10.196Z,13.90
2018-03-16T18:06:38.563Z,15.57
2018-03-16T18:09:06.898Z,15.03
2018-03-16T18:11:35.252Z,11.60
2018-03-16T18:14:03.399Z,12.57
2018-03-16T18:16:31.735Z,12.77
2018-03-16T18:19:00.085Z,14.67
2018-03-16T18:21:28.457Z,13.10
2018-03-16T18:23:56.830Z,13.17
2018-03-16T18:26:25.149Z,13.07
2018-03-16T18:28:53.462Z,13.10
2018-03-16T18:31:21.792Z,14.63
2018-03-16T18:33:50.229Z,17.20
2018-03-16T18:36:18.591Z,18.07
2018-03-16T18:38:46.972Z,16.90
2018-03-16T18:41:15.347Z,17.43
2018-03-16T18:43:43.679Z,17.73
2018-03-16T18:46:12.018Z,12.37
2018-03-16T18:48:40.358Z,13.63
2018-03-16T18:51:08.767Z,16.27
2018-03-16T18:53:37.206Z,17.90
2018-03-16T18:56:05.551Z,17.90
2018-03-16T18:58:33.905Z,16.43
2018-03-16T19:01:02.241Z,17.67
2018-03-16T19:03:30.584Z,17.67
2018-03-16T19:05:58.980Z,16.70
2018-03-16T19:08:27.362Z,15.47
2018-03-16T19:10:56.643Z,14.47
2018-03-16T19:13:24.976Z,17.90
2018-03-16T19:15:53.378Z,17.57
2018-03-16T19:18:21.755Z,15.77
2018-03-16T19:20:50.109Z,13.33
2018-03-16T19:23:18.497Z,11.37
2018-03-16T19:25:46.905Z,14.67
2018-03-16T19:28:15.235Z,12.97
2018-03-16T19:30:43.612Z,12.13
2018-03-16T19:33:11.950Z,14.07
2018-03-16T19:35:40.308Z,15.00
2018-03-16T19:38:08.666Z,15.77
2018-03-16T19:40:37.058Z,14.97
2018-03-16T19:43:05.453Z,15.67
2018-03-16T19:45:33.800Z,14.77
2018-03-16T19:48:02.151Z,16.80
2018-03-16T19:50:30.586Z,15.43
2018-03-16T19:52:58.984Z,15.30
2018-03-16T19:55:27.176Z,16.50
2018-03-16T19:57:55.361Z,13.80
2018-03-16T20:00:24.090Z,14.37
2018-03-16T20:02:52.458Z,15.30
2018-03-16T20:05:20.812Z,16.37
2018-03-16T20:07:49.164Z,14.97
2018-03-16T20:10:17.501Z,14.67
2018-03-16T20:12:45.897Z,14.33
2018-03-16T20:15:14.253Z,14.47
2018-03-16T20:17:50.080Z,14.50
2018-03-16T20:20:18.968Z,15.10
2018-03-16T20:22:47.402Z,15.10
2018-03-16T20:25:15.740Z,12.17
2018-03-16T20:27:43.896Z,12.97
2018-03-16T20:30:12.239Z,14.90
2018-03-16T20:32:40.590Z,12.27
2018-03-16T20:35:08.956Z,12.00
2018-03-16T20:37:37.317Z,11.17
2018-03-16T20:40:05.701Z,12.90
2018-03-16T20:42:34.065Z,14.10
2018-03-16T20:45:04.041Z,13.27
2018-03-16T20:47:32.387Z,13.30
2018-03-16T20:50:00.729Z,14.13
2018-03-16T20:52:29.099Z,12.47
2018-03-16T20:54:57.458Z,11.63
2018-03-16T20:57:25.831Z,12.03
2018-03-16T20:59:54.180Z,10.70
2018-03-16T21:02:22.526Z,7.83
2018-03-16T21:04:50.845Z,8.90
2018-03-16T21:07:19.184Z,9.97
2018-03-16T21:09:47.531Z,9.97
2018-03-16T21:12:15.896Z,9.70
2018-03-16T21:14:44.431Z,10.60
2018-03-16T21:17:12.770Z,9.77
2018-03-16T21:19:41.105Z,8.43
2018-03-16T21:22:09.462Z,9.67
2018-03-16T21:24:37.808Z,8.13
2018-03-16T21:27:06.169Z,6.37
2018-03-16T21:29:34.536Z,9.43
2018-03-16T21:32:02.838Z,8.57
2018-03-16T21:34:31.198Z,8.93
2018-03-16T21:36:59.537Z,8.60
2018-03-16T21:39:27.873Z,8.73
2018-03-16T21:41:56.201Z,8.77
2018-03-16T21:44:24.547Z,8.73
2018-03-16T21:46:52.881Z,8.23
2018-03-16T21:49:21.202Z,7.77
2018-03-16T21:51:49.588Z,9.00
2018-03-16T21:54:17.918Z,8.03
2018-03-16T21:56:46.443Z,6.83
2018-03-16T21:59:14.829Z,8.40
2018-03-16T22:01:43.169Z,9.37
2018-03-16T22:04:11.513Z,8.83
2018-03-16T22:06:39.840Z,8.10
2018-03-16T22:09:08.183Z,7.43
2018-03-16T22:11:36.507Z,7.87
2018-03-16T22:14:04.849Z,7.80
2018-03-16T22:16:33.191Z,7.03
2018-03-16T22:19:01.529Z,6.50
2018-03-16T22:21:29.855Z,6.90
2018-03-16T22:23:58.217Z,6.07
2018-03-16T22:26:26.541Z,6.87
2018-03-16T22:28:54.875Z,6.50
2018-03-16T22:31:23.221Z,6.80
2018-03-16T22:33:51.577Z,7.27
2018-03-16T22:36:19.904Z,6.97
2018-03-16T22:38:48.236Z,6.37
2018-03-16T22:41:16.562Z,6.47
2018-03-16T22:43:44.903Z,7.50
2018-03-16T22:46:13.262Z,6.70
2018-03-16T22:48:41.609Z,7.53
2018-03-16T22:51:09.935Z,7.23
2018-03-16T22:53:38.269Z,6.17
2018-03-16T22:56:06.591Z,6.10
2018-03-16T22:58:34.932Z,6.67
2018-03-16T23:01:03.296Z,6.77
2018-03-16T23:03:31.610Z,6.70
2018-03-16T23:05:59.945Z,7.20
2018-03-16T23:08:28.255Z,7.07
2018-03-16T23:10:56.687Z,7.40
2018-03-16T23:13:25.014Z,7.33
2018-03-16T23:15:53.333Z,7.27
2018-03-16T23:18:21.670Z,6.43
2018-03-16T23:20:50.009Z,7.30
2018-03-16T23:23:18.419Z,6.80
2018-03-16T23:25:46.848Z,6.47
2018-03-16T23:28:15.185Z,6.77
2018-03-16T23:30:43.525Z,6.43
2018-03-16T23:33:11.833Z,6.80
2018-03-16T23:35:40.190Z,6.77
2018-03-16T23:38:08.507Z,6.90
2018-03-16T23:40:36.833Z,7.17
2018-03-16T23:43:05.145Z,6.03
2018-03-16T23:45:33.482Z,5.60
2018-03-16T23:48:01.840Z,6.37
2018-03-16T23:50:30.168Z,5.67
2018-03-16T23:52:58.512Z,5.53
2018-03-16T23:55:26.873Z,6.60
2018-03-16T23:57:55.194Z,5.37
